sensor_id;sensor_type;location;lat;lon;timestamp;P1;durP1;ratioP1;P2;durP2;ratioP2
83634;SDS011;73596;49.482;11.238;2023-12-20T00:02:20;3.07;;;1.10;;
83634;SDS011;73596;49.482;11.238;2023-12-20T00:04:45;0.80;;;0.70;;
83634;SDS011;73596;49.482;11.238;2023-12-20T00:07:11;2.07;;;0.93;;
83634;SDS011;73596;49.482;11.238;2023-12-20T00:09:36;2.00;;;1.10;;
83634;SDS011;73596;49.482;11.238;2023-12-20T00:12:01;1.27;;;0.60;;
83634;SDS011;73596;49.482;11.238;2023-12-20T00:14:26;1.10;;;0.43;;
83634;SDS011;73596;49.482;11.238;2023-12-20T00:16:52;1.97;;;1.00;;
83634;SDS011;73596;49.482;11.238;2023-12-20T00:19:17;4.53;;;1.57;;
83634;SDS011;73596;49.482;11.238;2023-12-20T00:21:42;2.07;;;1.07;;
83634;SDS011;73596;49.482;11.238;2023-12-20T00:24:07;2.80;;;1.40;;
83634;SDS011;73596;49.482;11.238;2023-12-20T00:26:33;3.10;;;1.43;;
83634;SDS011;73596;49.482;11.238;2023-12-20T00:28:59;2.65;;;1.27;;
83634;SDS011;73596;49.482;11.238;2023-12-20T00:31:24;2.85;;;1.00;;
83634;SDS011;73596;49.482;11.238;2023-12-20T00:33:49;2.43;;;1.23;;
83634;SDS011;73596;49.482;11.238;2023-12-20T00:36:15;2.07;;;1.10;;
83634;SDS011;73596;49.482;11.238;2023-12-20T00:38:40;6.03;;;2.20;;
83634;SDS011;73596;49.482;11.238;2023-12-20T00:41:05;2.50;;;1.33;;
83634;SDS011;73596;49.482;11.238;2023-12-20T00:43:30;2.53;;;1.30;;
83634;SDS011;73596;49.482;11.238;2023-12-20T00:45:57;3.13;;;1.37;;
83634;SDS011;73596;49.482;11.238;2023-12-20T00:48:22;8.68;;;3.72;;
83634;SDS011;73596;49.482;11.238;2023-12-20T00:50:47;5.43;;;2.37;;
83634;SDS011;73596;49.482;11.238;2023-12-20T00:53:13;3.77;;;1.90;;
83634;SDS011;73596;49.482;11.238;2023-12-20T00:55:38;3.53;;;1.57;;
83634;SDS011;73596;49.482;11.238;2023-12-20T00:58:03;4.07;;;1.95;;
83634;SDS011;73596;49.482;11.238;2023-12-20T01:00:29;3.00;;;1.60;;
83634;SDS011;73596;49.482;11.238;2023-12-20T01:02:54;3.67;;;1.40;;
83634;SDS011;73596;49.482;11.238;2023-12-20T01:05:19;2.58;;;1.08;;
83634;SDS011;73596;49.482;11.238;2023-12-20T01:07:47;5.13;;;2.40;;
83634;SDS011;73596;49.482;11.238;2023-12-20T01:10:13;5.37;;;1.97;;
83634;SDS011;73596;49.482;11.238;2023-12-20T01:12:38;4.18;;;1.80;;
83634;SDS011;73596;49.482;11.238;2023-12-20T01:15:04;12.50;;;3.60;;
83634;SDS011;73596;49.482;11.238;2023-12-20T01:17:29;5.38;;;2.50;;
83634;SDS011;73596;49.482;11.238;2023-12-20T01:19:55;5.30;;;2.40;;
83634;SDS011;73596;49.482;11.238;2023-12-20T01:22:20;6.27;;;2.60;;
83634;SDS011;73596;49.482;11.238;2023-12-20T01:24:45;5.10;;;1.97;;
83634;SDS011;73596;49.482;11.238;2023-12-20T01:27:11;4.20;;;2.07;;
83634;SDS011;73596;49.482;11.238;2023-12-20T01:29:36;6.33;;;3.23;;
83634;SDS011;73596;49.482;11.238;2023-12-20T01:32:01;3.17;;;1.63;;
83634;SDS011;73596;49.482;11.238;2023-12-20T01:34:27;5.47;;;2.67;;
83634;SDS011;73596;49.482;11.238;2023-12-20T01:36:52;3.57;;;2.00;;
83634;SDS011;73596;49.482;11.238;2023-12-20T01:39:17;5.03;;;2.30;;
83634;SDS011;73596;49.482;11.238;2023-12-20T01:41:43;4.07;;;1.65;;
83634;SDS011;73596;49.482;11.238;2023-12-20T01:44:08;3.63;;;2.22;;
83634;SDS011;73596;49.482;11.238;2023-12-20T01:46:33;3.77;;;2.00;;
83634;SDS011;73596;49.482;11.238;2023-12-20T01:48:59;3.63;;;1.75;;
83634;SDS011;73596;49.482;11.238;2023-12-20T01:51:24;3.33;;;1.83;;
83634;SDS011;73596;49.482;11.238;2023-12-20T01:53:52;2.10;;;1.17;;
83634;SDS011;73596;49.482;11.238;2023-12-20T01:56:17;2.10;;;1.40;;
83634;SDS011;73596;49.482;11.238;2023-12-20T01:58:46;3.23;;;1.40;;
83634;SDS011;73596;49.482;11.238;2023-12-20T02:01:12;1.90;;;1.05;;
83634;SDS011;73596;49.482;11.238;2023-12-20T02:03:38;2.70;;;1.30;;
83634;SDS011;73596;49.482;11.238;2023-12-20T02:06:05;2.72;;;1.20;;
83634;SDS011;73596;49.482;11.238;2023-12-20T02:08:31;1.77;;;1.30;;
83634;SDS011;73596;49.482;11.238;2023-12-20T02:10:56;4.67;;;1.50;;
83634;SDS011;73596;49.482;11.238;2023-12-20T02:13:22;2.15;;;0.85;;
83634;SDS011;73596;49.482;11.238;2023-12-20T02:15:47;2.33;;;1.00;;
83634;SDS011;73596;49.482;11.238;2023-12-20T02:18:12;1.97;;;1.20;;
83634;SDS011;73596;49.482;11.238;2023-12-20T02:20:40;2.20;;;0.95;;
83634;SDS011;73596;49.482;11.238;2023-12-20T02:23:06;1.73;;;1.20;;
83634;SDS011;73596;49.482;11.238;2023-12-20T02:25:31;1.73;;;0.87;;
83634;SDS011;73596;49.482;11.238;2023-12-20T02:27:56;3.10;;;1.00;;
83634;SDS011;73596;49.482;11.238;2023-12-20T02:30:21;0.83;;;0.33;;
83634;SDS011;73596;49.482;11.238;2023-12-20T02:32:47;1.27;;;0.67;;
83634;SDS011;73596;49.482;11.238;2023-12-20T02:35:14;2.55;;;0.93;;
83634;SDS011;73596;49.482;11.238;2023-12-20T02:37:39;1.30;;;0.70;;
83634;SDS011;73596;49.482;11.238;2023-12-20T02:40:05;1.00;;;0.57;;
83634;SDS011;73596;49.482;11.238;2023-12-20T02:42:31;1.17;;;0.68;;
83634;SDS011;73596;49.482;11.238;2023-12-20T02:44:56;1.63;;;0.80;;
83634;SDS011;73596;49.482;11.238;2023-12-20T02:47:21;1.33;;;0.60;;
83634;SDS011;73596;49.482;11.238;2023-12-20T02:49:46;1.13;;;0.60;;
83634;SDS011;73596;49.482;11.238;2023-12-20T02:52:12;0.60;;;0.53;;
83634;SDS011;73596;49.482;11.238;2023-12-20T02:54:37;1.33;;;0.80;;
83634;SDS011;73596;49.482;11.238;2023-12-20T02:57:02;0.57;;;0.37;;
83634;SDS011;73596;49.482;11.238;2023-12-20T02:59:28;1.27;;;0.52;;
83634;SDS011;73596;49.482;11.238;2023-12-20T03:01:53;1.23;;;0.90;;
83634;SDS011;73596;49.482;11.238;2023-12-20T03:04:18;0.60;;;0.50;;
83634;SDS011;73596;49.482;11.238;2023-12-20T03:06:46;0.80;;;0.40;;
83634;SDS011;73596;49.482;11.238;2023-12-20T03:09:11;0.50;;;0.47;;
83634;SDS011;73596;49.482;11.238;2023-12-20T03:11:37;0.50;;;0.38;;
83634;SDS011;73596;49.482;11.238;2023-12-20T03:14:02;0.40;;;0.33;;
83634;SDS011;73596;49.482;11.238;2023-12-20T03:16:27;0.70;;;0.50;;
83634;SDS011;73596;49.482;11.238;2023-12-20T03:18:52;0.30;;;0.30;;
83634;SDS011;73596;49.482;11.238;2023-12-20T03:21:18;0.85;;;0.45;;
83634;SDS011;73596;49.482;11.238;2023-12-20T03:23:43;0.50;;;0.30;;
83634;SDS011;73596;49.482;11.238;2023-12-20T03:26:09;1.00;;;0.40;;
83634;SDS011;73596;49.482;11.238;2023-12-20T03:28:35;0.77;;;0.50;;
83634;SDS011;73596;49.482;11.238;2023-12-20T03:31:01;0.70;;;0.40;;
83634;SDS011;73596;49.482;11.238;2023-12-20T03:33:27;1.75;;;0.65;;
83634;SDS011;73596;49.482;11.238;2023-12-20T03:35:53;0.30;;;0.30;;
83634;SDS011;73596;49.482;11.238;2023-12-20T03:38:18;0.77;;;0.53;;
83634;SDS011;73596;49.482;11.238;2023-12-20T03:40:44;0.80;;;0.50;;
83634;SDS011;73596;49.482;11.238;2023-12-20T03:43:09;0.67;;;0.50;;
83634;SDS011;73596;49.482;11.238;2023-12-20T03:45:34;1.27;;;0.47;;
83634;SDS011;73596;49.482;11.238;2023-12-20T03:47:59;0.90;;;0.63;;
83634;SDS011;73596;49.482;11.238;2023-12-20T03:50:25;0.60;;;0.50;;
83634;SDS011;73596;49.482;11.238;2023-12-20T03:52:51;0.40;;;0.30;;
83634;SDS011;73596;49.482;11.238;2023-12-20T03:55:16;1.00;;;0.50;;
83634;SDS011;73596;49.482;11.238;2023-12-20T03:57:42;1.30;;;0.57;;
83634;SDS011;73596;49.482;11.238;2023-12-20T04:00:07;0.60;;;0.38;;
83634;SDS011;73596;49.482;11.238;2023-12-20T04:02:35;0.73;;;0.43;;
83634;SDS011;73596;49.482;11.238;2023-12-20T04:05:01;0.30;;;0.30;;
83634;SDS011;73596;49.482;11.238;2023-12-20T04:07:26;0.27;;;0.27;;
83634;SDS011;73596;49.482;11.238;2023-12-20T04:09:51;0.77;;;0.40;;
83634;SDS011;73596;49.482;11.238;2023-12-20T04:12:16;0.80;;;0.50;;
83634;SDS011;73596;49.482;11.238;2023-12-20T04:14:42;0.63;;;0.50;;
83634;SDS011;73596;49.482;11.238;2023-12-20T04:17:07;0.60;;;0.43;;
83634;SDS011;73596;49.482;11.238;2023-12-20T04:19:32;0.75;;;0.47;;
83634;SDS011;73596;49.482;11.238;2023-12-20T04:21:57;0.30;;;0.20;;
83634;SDS011;73596;49.482;11.238;2023-12-20T04:24:23;0.53;;;0.43;;
83634;SDS011;73596;49.482;11.238;2023-12-20T04:26:48;0.60;;;0.40;;
83634;SDS011;73596;49.482;11.238;2023-12-20T04:29:13;0.77;;;0.33;;
83634;SDS011;73596;49.482;11.238;2023-12-20T04:31:38;1.37;;;0.70;;
83634;SDS011;73596;49.482;11.238;2023-12-20T04:34:04;0.40;;;0.30;;
83634;SDS011;73596;49.482;11.238;2023-12-20T04:36:29;0.33;;;0.30;;
83634;SDS011;73596;49.482;11.238;2023-12-20T04:38:55;1.17;;;0.52;;
83634;SDS011;73596;49.482;11.238;2023-12-20T04:41:20;0.73;;;0.50;;
83634;SDS011;73596;49.482;11.238;2023-12-20T04:43:45;0.67;;;0.50;;
83634;SDS011;73596;49.482;11.238;2023-12-20T04:46:10;0.40;;;0.37;;
83634;SDS011;73596;49.482;11.238;2023-12-20T04:48:36;0.67;;;0.47;;
83634;SDS011;73596;49.482;11.238;2023-12-20T04:51:01;0.68;;;0.47;;
83634;SDS011;73596;49.482;11.238;2023-12-20T04:53:27;0.80;;;0.60;;
83634;SDS011;73596;49.482;11.238;2023-12-20T04:55:52;0.75;;;0.57;;
83634;SDS011;73596;49.482;11.238;2023-12-20T04:58:18;1.48;;;0.75;;
83634;SDS011;73596;49.482;11.238;2023-12-20T05:00:43;0.70;;;0.57;;
83634;SDS011;73596;49.482;11.238;2023-12-20T05:03:09;0.70;;;0.50;;
83634;SDS011;73596;49.482;11.238;2023-12-20T05:05:34;0.80;;;0.50;;
83634;SDS011;73596;49.482;11.238;2023-12-20T05:08:00;0.85;;;0.55;;
83634;SDS011;73596;49.482;11.238;2023-12-20T05:10:25;0.70;;;0.40;;
83634;SDS011;73596;49.482;11.238;2023-12-20T05:12:52;0.85;;;0.60;;
83634;SDS011;73596;49.482;11.238;2023-12-20T05:15:17;1.00;;;0.70;;
83634;SDS011;73596;49.482;11.238;2023-12-20T05:17:42;0.40;;;0.22;;
83634;SDS011;73596;49.482;11.238;2023-12-20T05:20:08;0.97;;;0.47;;
83634;SDS011;73596;49.482;11.238;2023-12-20T05:22:33;2.00;;;0.50;;
83634;SDS011;73596;49.482;11.238;2023-12-20T05:24:58;0.43;;;0.43;;
83634;SDS011;73596;49.482;11.238;2023-12-20T05:27:24;0.77;;;0.33;;
83634;SDS011;73596;49.482;11.238;2023-12-20T05:29:49;1.23;;;0.67;;
83634;SDS011;73596;49.482;11.238;2023-12-20T05:32:15;0.70;;;0.50;;
83634;SDS011;73596;49.482;11.238;2023-12-20T05:34:42;0.90;;;0.43;;
83634;SDS011;73596;49.482;11.238;2023-12-20T05:37:07;0.97;;;0.50;;
83634;SDS011;73596;49.482;11.238;2023-12-20T05:39:32;1.13;;;0.80;;
83634;SDS011;73596;49.482;11.238;2023-12-20T05:41:57;0.47;;;0.40;;
83634;SDS011;73596;49.482;11.238;2023-12-20T05:44:23;1.83;;;0.80;;
83634;SDS011;73596;49.482;11.238;2023-12-20T05:46:48;1.90;;;1.20;;
83634;SDS011;73596;49.482;11.238;2023-12-20T05:49:13;0.30;;;0.27;;
83634;SDS011;73596;49.482;11.238;2023-12-20T05:51:39;0.68;;;0.60;;
83634;SDS011;73596;49.482;11.238;2023-12-20T05:54:04;0.83;;;0.50;;
83634;SDS011;73596;49.482;11.238;2023-12-20T05:56:29;0.50;;;0.40;;
83634;SDS011;73596;49.482;11.238;2023-12-20T05:58:54;1.27;;;0.63;;
83634;SDS011;73596;49.482;11.238;2023-12-20T06:01:20;0.93;;;0.60;;
83634;SDS011;73596;49.482;11.238;2023-12-20T06:03:45;0.80;;;0.60;;
83634;SDS011;73596;49.482;11.238;2023-12-20T06:06:13;0.93;;;0.60;;
83634;SDS011;73596;49.482;11.238;2023-12-20T06:08:38;1.85;;;0.90;;
83634;SDS011;73596;49.482;11.238;2023-12-20T06:11:04;1.77;;;1.15;;
83634;SDS011;73596;49.482;11.238;2023-12-20T06:13:30;1.05;;;0.70;;
83634;SDS011;73596;49.482;11.238;2023-12-20T06:15:55;1.33;;;0.70;;
83634;SDS011;73596;49.482;11.238;2023-12-20T06:18:21;1.60;;;1.00;;
83634;SDS011;73596;49.482;11.238;2023-12-20T06:20:47;1.10;;;1.00;;
83634;SDS011;73596;49.482;11.238;2023-12-20T06:23:12;1.88;;;1.10;;
83634;SDS011;73596;49.482;11.238;2023-12-20T06:25:37;1.20;;;0.80;;
83634;SDS011;73596;49.482;11.238;2023-12-20T06:28:03;1.57;;;1.13;;
83634;SDS011;73596;49.482;11.238;2023-12-20T06:30:28;1.98;;;1.10;;
83634;SDS011;73596;49.482;11.238;2023-12-20T06:32:54;2.43;;;1.20;;
83634;SDS011;73596;49.482;11.238;2023-12-20T06:35:20;1.60;;;1.00;;
83634;SDS011;73596;49.482;11.238;2023-12-20T06:37:45;1.73;;;1.08;;
83634;SDS011;73596;49.482;11.238;2023-12-20T06:40:10;1.63;;;1.30;;
83634;SDS011;73596;49.482;11.238;2023-12-20T06:42:36;1.50;;;1.00;;
83634;SDS011;73596;49.482;11.238;2023-12-20T06:45:01;1.73;;;1.33;;
83634;SDS011;73596;49.482;11.238;2023-12-20T06:47:27;2.92;;;1.30;;
83634;SDS011;73596;49.482;11.238;2023-12-20T06:49:52;1.70;;;1.10;;
83634;SDS011;73596;49.482;11.238;2023-12-20T06:52:17;1.87;;;1.30;;
83634;SDS011;73596;49.482;11.238;2023-12-20T06:54:43;1.77;;;1.30;;
83634;SDS011;73596;49.482;11.238;2023-12-20T06:57:08;3.13;;;1.40;;
83634;SDS011;73596;49.482;11.238;2023-12-20T06:59:33;1.85;;;1.13;;
83634;SDS011;73596;49.482;11.238;2023-12-20T07:02:03;2.13;;;1.40;;
83634;SDS011;73596;49.482;11.238;2023-12-20T07:04:30;4.43;;;1.95;;
83634;SDS011;73596;49.482;11.238;2023-12-20T07:06:55;3.57;;;1.87;;
83634;SDS011;73596;49.482;11.238;2023-12-20T07:09:22;5.25;;;1.83;;
83634;SDS011;73596;49.482;11.238;2023-12-20T07:11:47;1.88;;;0.90;;
83634;SDS011;73596;49.482;11.238;2023-12-20T07:14:13;1.98;;;1.15;;
83634;SDS011;73596;49.482;11.238;2023-12-20T07:16:39;2.47;;;1.02;;
83634;SDS011;73596;49.482;11.238;2023-12-20T07:19:05;2.50;;;1.17;;
83634;SDS011;73596;49.482;11.238;2023-12-20T07:21:30;3.23;;;1.83;;
83634;SDS011;73596;49.482;11.238;2023-12-20T07:23:55;4.13;;;1.40;;
83634;SDS011;73596;49.482;11.238;2023-12-20T07:26:20;2.77;;;1.63;;
83634;SDS011;73596;49.482;11.238;2023-12-20T07:28:46;4.07;;;1.97;;
83634;SDS011;73596;49.482;11.238;2023-12-20T07:31:11;3.87;;;1.67;;
83634;SDS011;73596;49.482;11.238;2023-12-20T07:33:37;2.67;;;1.45;;
83634;SDS011;73596;49.482;11.238;2023-12-20T07:36:02;5.80;;;2.47;;
83634;SDS011;73596;49.482;11.238;2023-12-20T07:38:27;3.88;;;2.00;;
83634;SDS011;73596;49.482;11.238;2023-12-20T07:40:53;3.60;;;1.40;;
83634;SDS011;73596;49.482;11.238;2023-12-20T07:43:18;1.73;;;1.10;;
83634;SDS011;73596;49.482;11.238;2023-12-20T07:45:43;3.67;;;2.13;;
83634;SDS011;73596;49.482;11.238;2023-12-20T07:48:08;4.13;;;2.35;;
83634;SDS011;73596;49.482;11.238;2023-12-20T07:50:34;2.60;;;1.53;;
83634;SDS011;73596;49.482;11.238;2023-12-20T07:52:59;2.28;;;1.55;;
83634;SDS011;73596;49.482;11.238;2023-12-20T07:55:25;2.28;;;1.58;;
83634;SDS011;73596;49.482;11.238;2023-12-20T07:57:51;2.35;;;1.40;;
83634;SDS011;73596;49.482;11.238;2023-12-20T08:00:17;2.97;;;1.20;;
83634;SDS011;73596;49.482;11.238;2023-12-20T08:02:42;4.03;;;1.83;;
83634;SDS011;73596;49.482;11.238;2023-12-20T08:05:07;2.40;;;1.50;;
83634;SDS011;73596;49.482;11.238;2023-12-20T08:07:33;2.50;;;1.40;;
83634;SDS011;73596;49.482;11.238;2023-12-20T08:09:58;2.57;;;1.40;;
83634;SDS011;73596;49.482;11.238;2023-12-20T08:12:23;2.63;;;1.50;;
83634;SDS011;73596;49.482;11.238;2023-12-20T08:14:50;2.40;;;1.33;;
83634;SDS011;73596;49.482;11.238;2023-12-20T08:17:16;2.87;;;1.93;;
83634;SDS011;73596;49.482;11.238;2023-12-20T08:19:43;3.60;;;1.90;;
83634;SDS011;73596;49.482;11.238;2023-12-20T08:22:08;3.40;;;1.43;;
83634;SDS011;73596;49.482;11.238;2023-12-20T08:24:33;4.23;;;1.90;;
83634;SDS011;73596;49.482;11.238;2023-12-20T08:26:59;2.83;;;1.30;;
83634;SDS011;73596;49.482;11.238;2023-12-20T08:29:24;2.77;;;1.30;;
83634;SDS011;73596;49.482;11.238;2023-12-20T08:31:53;6.70;;;2.50;;
83634;SDS011;73596;49.482;11.238;2023-12-20T08:34:19;3.08;;;1.98;;
83634;SDS011;73596;49.482;11.238;2023-12-20T08:36:44;2.95;;;1.80;;
83634;SDS011;73596;49.482;11.238;2023-12-20T08:39:09;2.97;;;2.10;;
83634;SDS011;73596;49.482;11.238;2023-12-20T08:41:35;3.50;;;1.80;;
83634;SDS011;73596;49.482;11.238;2023-12-20T08:44:00;3.85;;;2.08;;
83634;SDS011;73596;49.482;11.238;2023-12-20T08:46:25;4.43;;;1.83;;
83634;SDS011;73596;49.482;11.238;2023-12-20T08:48:51;4.30;;;2.17;;
83634;SDS011;73596;49.482;11.238;2023-12-20T08:51:16;2.40;;;1.70;;
83634;SDS011;73596;49.482;11.238;2023-12-20T08:53:41;3.00;;;1.80;;
83634;SDS011;73596;49.482;11.238;2023-12-20T08:56:06;3.08;;;2.03;;
83634;SDS011;73596;49.482;11.238;2023-12-20T08:58:32;2.50;;;1.20;;
83634;SDS011;73596;49.482;11.238;2023-12-20T09:00:58;3.58;;;1.73;;
83634;SDS011;73596;49.482;11.238;2023-12-20T09:03:23;2.73;;;1.43;;
83634;SDS011;73596;49.482;11.238;2023-12-20T09:05:49;4.70;;;1.73;;
83634;SDS011;73596;49.482;11.238;2023-12-20T09:08:14;3.53;;;2.10;;
83634;SDS011;73596;49.482;11.238;2023-12-20T09:10:39;3.33;;;1.87;;
83634;SDS011;73596;49.482;11.238;2023-12-20T09:13:05;3.67;;;1.70;;
83634;SDS011;73596;49.482;11.238;2023-12-20T09:15:30;2.40;;;1.47;;
83634;SDS011;73596;49.482;11.238;2023-12-20T09:17:55;2.63;;;1.93;;
83634;SDS011;73596;49.482;11.238;2023-12-20T09:20:21;2.15;;;1.80;;
83634;SDS011;73596;49.482;11.238;2023-12-20T09:22:48;3.33;;;2.00;;
83634;SDS011;73596;49.482;11.238;2023-12-20T09:25:13;2.10;;;1.60;;
83634;SDS011;73596;49.482;11.238;2023-12-20T09:27:40;3.45;;;1.63;;
83634;SDS011;73596;49.482;11.238;2023-12-20T09:30:06;2.03;;;1.63;;
83634;SDS011;73596;49.482;11.238;2023-12-20T09:32:32;2.28;;;1.40;;
83634;SDS011;73596;49.482;11.238;2023-12-20T09:34:57;2.95;;;1.38;;
83634;SDS011;73596;49.482;11.238;2023-12-20T09:37:23;2.35;;;1.70;;
83634;SDS011;73596;49.482;11.238;2023-12-20T09:39:50;2.78;;;1.80;;
83634;SDS011;73596;49.482;11.238;2023-12-20T09:42:17;1.87;;;1.00;;
83634;SDS011;73596;49.482;11.238;2023-12-20T09:44:49;3.40;;;1.63;;
83634;SDS011;73596;49.482;11.238;2023-12-20T09:47:14;2.15;;;1.27;;
83634;SDS011;73596;49.482;11.238;2023-12-20T09:49:42;2.88;;;1.67;;
83634;SDS011;73596;49.482;11.238;2023-12-20T09:52:09;2.03;;;1.27;;
83634;SDS011;73596;49.482;11.238;2023-12-20T09:54:36;3.03;;;1.45;;
83634;SDS011;73596;49.482;11.238;2023-12-20T09:57:01;2.10;;;1.38;;
83634;SDS011;73596;49.482;11.238;2023-12-20T09:59:26;3.53;;;1.60;;
83634;SDS011;73596;49.482;11.238;2023-12-20T10:01:52;2.27;;;1.37;;
83634;SDS011;73596;49.482;11.238;2023-12-20T10:04:21;2.40;;;1.00;;
83634;SDS011;73596;49.482;11.238;2023-12-20T10:06:46;1.80;;;1.10;;
83634;SDS011;73596;49.482;11.238;2023-12-20T10:09:12;1.60;;;1.08;;
83634;SDS011;73596;49.482;11.238;2023-12-20T10:11:38;0.80;;;0.80;;
83634;SDS011;73596;49.482;11.238;2023-12-20T10:14:04;1.80;;;0.77;;
83634;SDS011;73596;49.482;11.238;2023-12-20T10:16:30;2.70;;;1.25;;
83634;SDS011;73596;49.482;11.238;2023-12-20T10:18:56;2.15;;;1.10;;
83634;SDS011;73596;49.482;11.238;2023-12-20T10:21:22;3.20;;;0.93;;
83634;SDS011;73596;49.482;11.238;2023-12-20T10:23:50;2.58;;;1.20;;
83634;SDS011;73596;49.482;11.238;2023-12-20T10:26:19;1.40;;;1.00;;
83634;SDS011;73596;49.482;11.238;2023-12-20T10:28:53;2.75;;;0.98;;
83634;SDS011;73596;49.482;11.238;2023-12-20T10:31:26;2.75;;;0.95;;
83634;SDS011;73596;49.482;11.238;2023-12-20T10:33:52;4.55;;;1.73;;
83634;SDS011;73596;49.482;11.238;2023-12-20T10:36:17;2.00;;;0.80;;
83634;SDS011;73596;49.482;11.238;2023-12-20T10:38:43;0.93;;;0.60;;
83634;SDS011;73596;49.482;11.238;2023-12-20T10:41:09;4.88;;;1.27;;
83634;SDS011;73596;49.482;11.238;2023-12-20T10:43:35;1.33;;;1.00;;
83634;SDS011;73596;49.482;11.238;2023-12-20T10:46:02;2.25;;;0.85;;
83634;SDS011;73596;49.482;11.238;2023-12-20T10:48:28;5.82;;;0.80;;
83634;SDS011;73596;49.482;11.238;2023-12-20T10:50:56;2.55;;;1.33;;
83634;SDS011;73596;49.482;11.238;2023-12-20T10:53:22;3.05;;;1.00;;
83634;SDS011;73596;49.482;11.238;2023-12-20T10:55:49;5.85;;;1.73;;
83634;SDS011;73596;49.482;11.238;2023-12-20T10:58:19;6.28;;;0.70;;
83634;SDS011;73596;49.482;11.238;2023-12-20T11:00:45;1.95;;;0.90;;
83634;SDS011;73596;49.482;11.238;2023-12-20T11:03:12;3.70;;;1.00;;
83634;SDS011;73596;49.482;11.238;2023-12-20T11:05:42;2.70;;;1.10;;
83634;SDS011;73596;49.482;11.238;2023-12-20T11:08:25;2.17;;;1.02;;
83634;SDS011;73596;49.482;11.238;2023-12-20T11:11:06;2.20;;;1.17;;
83634;SDS011;73596;49.482;11.238;2023-12-20T11:13:40;1.20;;;0.98;;
83634;SDS011;73596;49.482;11.238;2023-12-20T11:16:12;0.90;;;0.52;;
83634;SDS011;73596;49.482;11.238;2023-12-20T11:18:37;3.97;;;0.77;;
83634;SDS011;73596;49.482;11.238;2023-12-20T11:21:05;1.70;;;1.58;;
83634;SDS011;73596;49.482;11.238;2023-12-20T11:23:32;3.70;;;0.93;;
83634;SDS011;73596;49.482;11.238;2023-12-20T11:25:59;2.78;;;1.20;;
83634;SDS011;73596;49.482;11.238;2023-12-20T11:28:25;2.35;;;0.90;;
83634;SDS011;73596;49.482;11.238;2023-12-20T11:30:52;4.20;;;0.98;;
83634;SDS011;73596;49.482;11.238;2023-12-20T11:33:21;1.88;;;0.82;;
83634;SDS011;73596;49.482;11.238;2023-12-20T11:36:01;2.45;;;1.10;;
83634;SDS011;73596;49.482;11.238;2023-12-20T11:38:27;2.05;;;0.93;;
83634;SDS011;73596;49.482;11.238;2023-12-20T11:41:00;8.32;;;0.90;;
83634;SDS011;73596;49.482;11.238;2023-12-20T11:46:03;6.13;;;1.45;;
83634;SDS011;73596;49.482;11.238;2023-12-20T11:48:30;6.00;;;1.33;;
83634;SDS011;73596;49.482;11.238;2023-12-20T11:50:56;2.95;;;0.63;;
83634;SDS011;73596;49.482;11.238;2023-12-20T11:53:22;1.60;;;1.03;;
83634;SDS011;73596;49.482;11.238;2023-12-20T11:55:48;2.00;;;0.90;;
83634;SDS011;73596;49.482;11.238;2023-12-20T11:58:14;2.08;;;0.77;;
83634;SDS011;73596;49.482;11.238;2023-12-20T12:00:41;5.63;;;1.00;;
83634;SDS011;73596;49.482;11.238;2023-12-20T12:03:06;1.40;;;0.77;;
83634;SDS011;73596;49.482;11.238;2023-12-20T12:05:32;1.50;;;0.77;;
83634;SDS011;73596;49.482;11.238;2023-12-20T12:07:58;1.55;;;0.85;;
83634;SDS011;73596;49.482;11.238;2023-12-20T12:10:23;1.58;;;1.17;;
83634;SDS011;73596;49.482;11.238;2023-12-20T12:12:49;1.40;;;0.93;;
83634;SDS011;73596;49.482;11.238;2023-12-20T12:15:14;1.55;;;0.55;;
83634;SDS011;73596;49.482;11.238;2023-12-20T12:17:39;2.42;;;0.85;;
83634;SDS011;73596;49.482;11.238;2023-12-20T12:20:05;1.63;;;0.80;;
83634;SDS011;73596;49.482;11.238;2023-12-20T12:22:31;3.60;;;1.30;;
83634;SDS011;73596;49.482;11.238;2023-12-20T12:24:59;2.80;;;1.08;;
83634;SDS011;73596;49.482;11.238;2023-12-20T12:27:33;1.95;;;1.13;;
83634;SDS011;73596;49.482;11.238;2023-12-20T12:30:03;1.23;;;1.13;;
83634;SDS011;73596;49.482;11.238;2023-12-20T12:32:29;0.95;;;0.85;;
83634;SDS011;73596;49.482;11.238;2023-12-20T12:34:55;6.82;;;1.58;;
83634;SDS011;73596;49.482;11.238;2023-12-20T12:37:20;1.07;;;0.70;;
83634;SDS011;73596;49.482;11.238;2023-12-20T12:39:48;2.25;;;0.95;;
83634;SDS011;73596;49.482;11.238;2023-12-20T12:42:14;4.22;;;1.10;;
83634;SDS011;73596;49.482;11.238;2023-12-20T12:44:39;2.80;;;0.57;;
83634;SDS011;73596;49.482;11.238;2023-12-20T12:47:04;3.77;;;1.00;;
83634;SDS011;73596;49.482;11.238;2023-12-20T12:49:30;1.58;;;0.77;;
83634;SDS011;73596;49.482;11.238;2023-12-20T12:51:57;4.65;;;1.10;;
83634;SDS011;73596;49.482;11.238;2023-12-20T12:54:23;2.22;;;1.05;;
83634;SDS011;73596;49.482;11.238;2023-12-20T12:56:48;3.38;;;1.10;;
83634;SDS011;73596;49.482;11.238;2023-12-20T12:59:15;2.65;;;1.55;;
83634;SDS011;73596;49.482;11.238;2023-12-20T13:01:40;1.23;;;0.88;;
83634;SDS011;73596;49.482;11.238;2023-12-20T13:04:06;0.80;;;0.60;;
83634;SDS011;73596;49.482;11.238;2023-12-20T13:06:35;1.80;;;0.95;;
83634;SDS011;73596;49.482;11.238;2023-12-20T13:09:01;3.22;;;1.00;;
83634;SDS011;73596;49.482;11.238;2023-12-20T13:11:26;3.67;;;1.73;;
83634;SDS011;73596;49.482;11.238;2023-12-20T13:13:51;2.97;;;1.10;;
83634;SDS011;73596;49.482;11.238;2023-12-20T13:16:16;3.77;;;1.33;;
83634;SDS011;73596;49.482;11.238;2023-12-20T13:18:42;1.97;;;0.90;;
83634;SDS011;73596;49.482;11.238;2023-12-20T13:21:07;2.25;;;1.15;;
83634;SDS011;73596;49.482;11.238;2023-12-20T13:23:33;4.07;;;1.38;;
83634;SDS011;73596;49.482;11.238;2023-12-20T13:25:59;3.47;;;1.27;;
83634;SDS011;73596;49.482;11.238;2023-12-20T13:28:24;3.93;;;1.40;;
83634;SDS011;73596;49.482;11.238;2023-12-20T13:30:49;1.13;;;0.80;;
83634;SDS011;73596;49.482;11.238;2023-12-20T13:33:15;2.45;;;1.23;;
83634;SDS011;73596;49.482;11.238;2023-12-20T13:35:40;2.10;;;1.20;;
83634;SDS011;73596;49.482;11.238;2023-12-20T13:38:05;2.87;;;0.90;;
83634;SDS011;73596;49.482;11.238;2023-12-20T13:40:30;1.98;;;0.93;;
83634;SDS011;73596;49.482;11.238;2023-12-20T13:42:56;2.90;;;0.90;;
83634;SDS011;73596;49.482;11.238;2023-12-20T13:45:21;0.83;;;0.70;;
83634;SDS011;73596;49.482;11.238;2023-12-20T13:47:47;1.25;;;0.85;;
83634;SDS011;73596;49.482;11.238;2023-12-20T13:50:12;2.35;;;1.23;;
83634;SDS011;73596;49.482;11.238;2023-12-20T13:52:38;0.95;;;0.55;;
83634;SDS011;73596;49.482;11.238;2023-12-20T13:55:03;2.38;;;1.10;;
83634;SDS011;73596;49.482;11.238;2023-12-20T13:57:30;1.35;;;0.80;;
83634;SDS011;73596;49.482;11.238;2023-12-20T13:59:55;0.90;;;0.70;;
83634;SDS011;73596;49.482;11.238;2023-12-20T14:02:22;2.17;;;1.00;;
83634;SDS011;73596;49.482;11.238;2023-12-20T14:04:48;3.25;;;1.00;;
83634;SDS011;73596;49.482;11.238;2023-12-20T14:07:13;4.67;;;1.37;;
83634;SDS011;73596;49.482;11.238;2023-12-20T14:09:38;1.87;;;0.67;;
83634;SDS011;73596;49.482;11.238;2023-12-20T14:12:10;4.82;;;0.70;;
83634;SDS011;73596;49.482;11.238;2023-12-20T14:14:35;3.17;;;0.87;;
83634;SDS011;73596;49.482;11.238;2023-12-20T14:17:00;1.27;;;0.63;;
83634;SDS011;73596;49.482;11.238;2023-12-20T14:19:25;1.20;;;0.60;;
83634;SDS011;73596;49.482;11.238;2023-12-20T14:21:51;1.25;;;0.73;;
83634;SDS011;73596;49.482;11.238;2023-12-20T14:24:16;0.80;;;0.60;;
83634;SDS011;73596;49.482;11.238;2023-12-20T14:26:42;1.43;;;0.93;;
83634;SDS011;73596;49.482;11.238;2023-12-20T14:29:07;4.47;;;0.90;;